sensor_id;sensor_type;location;lat;lon;timestamp;pressure;altitude;pressure_sealevel;temperature;humidity
64827;BME280;51265;53.972;12.286;2024-03-02T00:01:20;99897.34;;;5.03;100.00
64827;BME280;51265;53.972;12.286;2024-03-02T00:03:46;99900.06;;;5.03;100.00
64827;BME280;51265;53.972;12.286;2024-03-02T00:06:12;99898.69;;;5.05;100.00
64827;BME280;51265;53.972;12.286;2024-03-02T00:08:38;99889.09;;;5.13;100.00
64827;BME280;51265;53.972;12.286;2024-03-02T00:11:05;99888.00;;;5.14;100.00
64827;BME280;51265;53.972;12.286;2024-03-02T00:13:31;99885.25;;;5.14;100.00
64827;BME280;51265;53.972;12.286;2024-03-02T00:15:58;99882.56;;;5.09;100.00
64827;BME280;51265;53.972;12.286;2024-03-02T00:18:31;99887.50;;;5.07;100.00
64827;BME280;51265;53.972;12.286;2024-03-02T00:20:58;99883.91;;;5.11;100.00
64827;BME280;51265;53.972;12.286;2024-03-02T00:23:27;99894.00;;;5.16;100.00
64827;BME280;51265;53.972;12.286;2024-03-02T00:25:55;99894.00;;;5.16;100.00
64827;BME280;51265;53.972;12.286;2024-03-02T00:28:26;99898.31;;;5.27;100.00
64827;BME280;51265;53.972;12.286;2024-03-02T00:33:27;99892.34;;;5.20;100.00
64827;BME280;51265;53.972;12.286;2024-03-02T00:35:57;99888.56;;;5.06;100.00
64827;BME280;51265;53.972;12.286;2024-03-02T00:38:23;99895.16;;;4.99;100.00
64827;BME280;51265;53.972;12.286;2024-03-02T00:40:50;99887.50;;;5.02;100.00
64827;BME280;51265;53.972;12.286;2024-03-02T00:46:04;99884.75;;;5.02;100.00
64827;BME280;51265;53.972;12.286;2024-03-02T00:48:30;99885.56;;;5.07;100.00
64827;BME280;51265;53.972;12.286;2024-03-02T00:51:02;99893.47;;;5.09;100.00
64827;BME280;51265;53.972;12.286;2024-03-02T00:53:30;99886.91;;;5.15;100.00
64827;BME280;51265;53.972;12.286;2024-03-02T00:55:59;99883.63;;;5.13;100.00
64827;BME280;51265;53.972;12.286;2024-03-02T00:58:26;99886.66;;;5.11;100.00
64827;BME280;51265;53.972;12.286;2024-03-02T01:00:53;99888.56;;;5.11;100.00
64827;BME280;51265;53.972;12.286;2024-03-02T01:03:19;99891.84;;;5.08;100.00
64827;BME280;51265;53.972;12.286;2024-03-02T01:05:45;99882.56;;;5.09;100.00
64827;BME280;51265;53.972;12.286;2024-03-02T01:08:11;99880.16;;;4.97;100.00
64827;BME280;51265;53.972;12.286;2024-03-02T01:10:37;99895.19;;;4.94;100.00
64827;BME280;51265;53.972;12.286;2024-03-02T01:13:03;99887.53;;;4.96;100.00
64827;BME280;51265;53.972;12.286;2024-03-02T01:15:30;99883.69;;;5.03;100.00
64827;BME280;51265;53.972;12.286;2024-03-02T01:17:56;99886.41;;;5.03;100.00
64827;BME280;51265;53.972;12.286;2024-03-02T01:20:22;99884.25;;;4.99;100.00
64827;BME280;51265;53.972;12.286;2024-03-02T01:22:48;99884.28;;;4.94;100.00
64827;BME280;51265;53.972;12.286;2024-03-02T01:25:14;99877.44;;;4.92;100.00
64827;BME280;51265;53.972;12.286;2024-03-02T01:27:41;99884.84;;;4.86;100.00
64827;BME280;51265;53.972;12.286;2024-03-02T01:30:07;99878.31;;;4.82;100.00
64827;BME280;51265;53.972;12.286;2024-03-02T01:32:33;99877.25;;;4.78;100.00
64827;BME280;51265;53.972;12.286;2024-03-02T01:34:59;99873.41;;;4.79;100.00
64827;BME280;51265;53.972;12.286;2024-03-02T01:37:26;99871.81;;;4.73;100.00
64827;BME280;51265;53.972;12.286;2024-03-02T01:39:52;99865.81;;;4.71;100.00
64827;BME280;51265;53.972;12.286;2024-03-02T01:42:19;99871.25;;;4.71;100.00
64827;BME280;51265;53.972;12.286;2024-03-02T01:44:45;99867.44;;;4.67;100.00
64827;BME280;51265;53.972;12.286;2024-03-02T01:47:11;99865.81;;;4.71;100.00
64827;BME280;51265;53.972;12.286;2024-03-02T01:49:37;99864.69;;;4.72;100.00
64827;BME280;51265;53.972;12.286;2024-03-02T01:52:04;99861.41;;;4.75;100.00
64827;BME280;51265;53.972;12.286;2024-03-02T01:54:31;99867.41;;;4.82;100.00
64827;BME280;51265;53.972;12.286;2024-03-02T01:56:57;99866.84;;;4.80;100.00
64827;BME280;51265;53.972;12.286;2024-03-02T01:59:23;99863.28;;;4.85;100.00
64827;BME280;51265;53.972;12.286;2024-03-02T02:01:49;99860.56;;;4.90;100.00
64827;BME280;51265;53.972;12.286;2024-03-02T02:04:16;99863.53;;;4.88;100.00
64827;BME280;51265;53.972;12.286;2024-03-02T02:06:44;99853.69;;;4.92;100.00
64827;BME280;51265;53.972;12.286;2024-03-02T02:09:10;99848.25;;;4.97;100.00
64827;BME280;51265;53.972;12.286;2024-03-02T02:11:36;99846.03;;;4.99;100.00
64827;BME280;51265;53.972;12.286;2024-03-02T02:14:02;99846.03;;;4.99;100.00
64827;BME280;51265;53.972;12.286;2024-03-02T02:16:28;99849.56;;;5.00;100.00
64827;BME280;51265;53.972;12.286;2024-03-02T02:18:54;99847.09;;;5.04;100.00
64827;BME280;51265;53.972;12.286;2024-03-02T02:21:23;99840.84;;;5.03;100.00
64827;BME280;51265;53.972;12.286;2024-03-02T02:23:49;99832.38;;;4.99;100.00
64827;BME280;51265;53.972;12.286;2024-03-02T02:26:16;99831.88;;;4.97;100.00
64827;BME280;51265;53.972;12.286;2024-03-02T02:41:02;99820.19;;;4.87;100.00
64827;BME280;51265;53.972;12.286;2024-03-02T02:43:28;99821.00;;;4.87;100.00
64827;BME280;51265;53.972;12.286;2024-03-02T02:45:54;99819.34;;;4.91;100.00
64827;BME280;51265;53.972;12.286;2024-03-02T02:48:20;99821.50;;;4.94;100.00
64827;BME280;51265;53.972;12.286;2024-03-02T02:50:46;99823.69;;;4.92;100.00
64827;BME280;51265;53.972;12.286;2024-03-02T02:53:13;99824.50;;;4.93;100.00
64827;BME280;51265;53.972;12.286;2024-03-02T02:55:40;99824.75;;;4.96;100.00
64827;BME280;51265;53.972;12.286;2024-03-02T02:58:06;99819.31;;;4.96;100.00
64827;BME280;51265;53.972;12.286;2024-03-02T03:00:32;99823.66;;;5.03;100.00
64827;BME280;51265;53.972;12.286;2024-03-02T03:02:59;99820.38;;;5.00;100.00
64827;BME280;51265;53.972;12.286;2024-03-02T03:05:25;99825.34;;;4.93;100.00
64827;BME280;51265;53.972;12.286;2024-03-02T03:07:51;99817.69;;;4.95;100.00
64827;BME280;51265;53.972;12.286;2024-03-02T03:10:17;99822.59;;;4.98;100.00
64827;BME280;51265;53.972;12.286;2024-03-02T03:12:44;99816.31;;;4.93;100.00
64827;BME280;51265;53.972;12.286;2024-03-02T03:15:10;99824.75;;;4.96;100.00
64827;BME280;51265;53.972;12.286;2024-03-02T03:17:37;99819.88;;;4.88;100.00
64827;BME280;51265;53.972;12.286;2024-03-02T03:20:04;99808.97;;;4.88;100.00
64827;BME280;51265;53.972;12.286;2024-03-02T03:22:31;99818.25;;;4.87;100.00
64827;BME280;51265;53.972;12.286;2024-03-02T03:24:58;99822.09;;;4.86;100.00
64827;BME280;51265;53.972;12.286;2024-03-02T03:27:24;99828.09;;;4.83;100.00
64827;BME280;51265;53.972;12.286;2024-03-02T03:29:50;99825.09;;;4.90;100.00
64827;BME280;51265;53.972;12.286;2024-03-02T03:32:16;99826.97;;;4.94;100.00
64827;BME280;51265;53.972;12.286;2024-03-02T03:34:42;99820.91;;;5.03;100.00
64827;BME280;51265;53.972;12.286;2024-03-02T03:37:08;99826.88;;;5.10;100.00
64827;BME280;51265;53.972;12.286;2024-03-02T03:39:35;99830.09;;;5.17;100.00
64827;BME280;51265;53.972;12.286;2024-03-02T03:42:02;99823.28;;;5.19;100.00
64827;BME280;51265;53.972;12.286;2024-03-02T03:44:28;99822.22;;;5.15;100.00
64827;BME280;51265;53.972;12.286;2024-03-02T03:46:54;99827.34;;;5.22;100.00
64827;BME280;51265;53.972;12.286;2024-03-02T03:49:20;99828.66;;;5.30;100.00
64827;BME280;51265;53.972;12.286;2024-03-02T03:51:46;99827.81;;;5.34;100.00
64827;BME280;51265;53.972;12.286;2024-03-02T03:54:12;99829.69;;;5.39;100.00
64827;BME280;51265;53.972;12.286;2024-03-02T03:56:39;99829.13;;;5.42;100.00
64827;BME280;51265;53.972;12.286;2024-03-02T03:59:05;99827.25;;;5.37;100.00
64827;BME280;51265;53.972;12.286;2024-03-02T04:01:31;99823.41;;;5.43;100.00
64827;BME280;51265;53.972;12.286;2024-03-02T04:03:57;99825.84;;;5.45;100.00
64827;BME280;51265;53.972;12.286;2024-03-02T04:06:24;99830.94;;;5.57;100.00
64827;BME280;51265;53.972;12.286;2024-03-02T04:08:50;99826.28;;;5.57;100.00
64827;BME280;51265;53.972;12.286;2024-03-02T04:11:16;99822.25;;;5.49;100.00
64827;BME280;51265;53.972;12.286;2024-03-02T04:13:42;99827.72;;;5.49;100.00
64827;BME280;51265;53.972;12.286;2024-03-02T04:16:08;99818.38;;;5.56;100.00
64827;BME280;51265;53.972;12.286;2024-03-02T04:18:35;99833.66;;;5.57;100.00
64827;BME280;51265;53.972;12.286;2024-03-02T04:21:01;99822.16;;;5.60;100.00
64827;BME280;51265;53.972;12.286;2024-03-02T04:23:27;99832.28;;;5.59;100.00
64827;BME280;51265;53.972;12.286;2024-03-02T04:25:53;99827.06;;;5.63;100.00
64827;BME280;51265;53.972;12.286;2024-03-02T04:28:19;99829.75;;;5.68;100.00
64827;BME280;51265;53.972;12.286;2024-03-02T04:30:45;99840.66;;;5.68;100.00
64827;BME280;51265;53.972;12.286;2024-03-02T04:33:12;99836.00;;;5.68;100.00
64827;BME280;51265;53.972;12.286;2024-03-02T04:35:38;99844.50;;;5.67;100.00
64827;BME280;51265;53.972;12.286;2024-03-02T04:38:04;99840.34;;;5.74;100.00
64827;BME280;51265;53.972;12.286;2024-03-02T04:40:30;99836.81;;;5.74;100.00
64827;BME280;51265;53.972;12.286;2024-03-02T04:42:56;99839.53;;;5.74;100.00
64827;BME280;51265;53.972;12.286;2024-03-02T04:45:23;99835.69;;;5.75;100.00
64827;BME280;51265;53.972;12.286;2024-03-02T04:47:49;99839.53;;;5.74;100.00
64827;BME280;51265;53.972;12.286;2024-03-02T04:50:15;99844.44;;;5.77;100.00
64827;BME280;51265;53.972;12.286;2024-03-02T04:52:41;99846.06;;;5.78;100.00
64827;BME280;51265;53.972;12.286;2024-03-02T04:55:08;99846.38;;;5.71;100.00
64827;BME280;51265;53.972;12.286;2024-03-02T04:58:01;99845.25;;;5.78;100.00
64827;BME280;51265;53.972;12.286;2024-03-02T05:00:27;99846.06;;;5.78;100.00
64827;BME280;51265;53.972;12.286;2024-03-02T05:02:53;99847.41;;;5.81;100.00
64827;BME280;51265;53.972;12.286;2024-03-02T05:05:19;99842.78;;;5.76;100.00
64827;BME280;51265;53.972;12.286;2024-03-02T05:07:45;99851.47;;;5.83;100.00
64827;BME280;51265;53.972;12.286;2024-03-02T05:10:12;99853.09;;;5.84;100.00
64827;BME280;51265;53.972;12.286;2024-03-02T05:12:38;99849.56;;;5.84;100.00
64827;BME280;51265;53.972;12.286;2024-03-02T05:15:12;99861.91;;;5.81;100.00
64827;BME280;51265;53.972;12.286;2024-03-02T05:17:39;99858.06;;;5.82;100.00
64827;BME280;51265;53.972;12.286;2024-03-02T05:20:07;99854.78;;;5.80;100.00
64827;BME280;51265;53.972;12.286;2024-03-02T05:22:34;99851.53;;;5.78;100.00
64827;BME280;51265;53.972;12.286;2024-03-02T05:25:01;99855.63;;;5.75;100.00
64827;BME280;51265;53.972;12.286;2024-03-02T05:27:38;99858.06;;;5.82;100.00
64827;BME280;51265;53.972;12.286;2024-03-02T05:30:05;99860.00;;;5.77;100.00
64827;BME280;51265;53.972;12.286;2024-03-02T05:32:33;99855.38;;;5.77;100.00
64827;BME280;51265;53.972;12.286;2024-03-02T05:34:59;99859.38;;;5.85;100.00
64827;BME280;51265;53.972;12.286;2024-03-02T05:37:25;99867.84;;;5.88;100.00
64827;BME280;51265;53.972;12.286;2024-03-02T05:39:52;99864.59;;;5.86;100.00
64827;BME280;51265;53.972;12.286;2024-03-02T05:42:18;99864.59;;;5.86;100.00
64827;BME280;51265;53.972;12.286;2024-03-02T05:44:44;99871.16;;;5.85;100.00
64827;BME280;51265;53.972;12.286;2024-03-02T05:47:10;99873.88;;;5.85;100.00
64827;BME280;51265;53.972;12.286;2024-03-02T05:49:36;99871.69;;;5.87;100.00
64827;BME280;51265;53.972;12.286;2024-03-02T05:52:03;99874.41;;;5.87;100.00
64827;BME280;51265;53.972;12.286;2024-03-02T05:54:29;99886.94;;;5.93;100.00
64827;BME280;51265;53.972;12.286;2024-03-02T05:56:55;99891.28;;;5.99;100.00
64827;BME280;51265;53.972;12.286;2024-03-02T05:59:21;99889.91;;;6.02;100.00
64827;BME280;51265;53.972;12.286;2024-03-02T06:01:48;99889.31;;;6.05;100.00
64827;BME280;51265;53.972;12.286;2024-03-02T06:04:16;99899.38;;;6.10;100.00
64827;BME280;51265;53.972;12.286;2024-03-02T06:06:42;99892.59;;;6.07;100.00
64827;BME280;51265;53.972;12.286;2024-03-02T06:09:09;99898.13;;;5.97;100.00
64827;BME280;51265;53.972;12.286;2024-03-02T06:11:39;99890.22;;;5.95;100.00
64827;BME280;51265;53.972;12.286;2024-03-02T06:14:06;99895.13;;;5.98;100.00
64827;BME280;51265;53.972;12.286;2024-03-02T06:16:32;99897.88;;;5.98;100.00
64827;BME280;51265;53.972;12.286;2024-03-02T06:18:59;99906.53;;;6.06;100.00
64827;BME280;51265;53.972;12.286;2024-03-02T06:21:25;99905.41;;;6.12;100.00
64827;BME280;51265;53.972;12.286;2024-03-02T06:23:51;99912.50;;;6.13;100.00
64827;BME280;51265;53.972;12.286;2024-03-02T06:26:18;99911.44;;;6.09;100.00
64827;BME280;51265;53.972;12.286;2024-03-02T06:28:44;99908.09;;;6.17;100.00
64827;BME280;51265;53.972;12.286;2024-03-02T06:31:11;99908.56;;;6.24;100.00
64827;BME280;51265;53.972;12.286;2024-03-02T06:33:37;99903.66;;;6.21;100.00
64827;BME280;51265;53.972;12.286;2024-03-02T06:36:04;99906.09;;;6.22;100.00
64827;BME280;51265;53.972;12.286;2024-03-02T06:38:30;99893.78;;;6.25;100.00
64827;BME280;51265;53.972;12.286;2024-03-02T06:40:59;99903.06;;;6.29;100.00
64827;BME280;51265;53.972;12.286;2024-03-02T06:43:25;99894.34;;;6.27;100.00
64827;BME280;51265;53.972;12.286;2024-03-02T06:45:51;99893.78;;;6.25;100.00
64827;BME280;51265;53.972;12.286;2024-03-02T06:48:18;99902.56;;;6.22;100.00
64827;BME280;51265;53.972;12.286;2024-03-02T06:50:46;99902.06;;;6.20;100.00
64827;BME280;51265;53.972;12.286;2024-03-02T06:53:13;99912.19;;;6.14;100.00
64827;BME280;51265;53.972;12.286;2024-03-02T06:55:40;99910.75;;;6.22;100.00
64827;BME280;51265;53.972;12.286;2024-03-02T06:58:06;99909.13;;;6.21;100.00
64827;BME280;51265;53.972;12.286;2024-03-02T07:00:32;99908.00;;;6.27;100.00
64827;BME280;51265;53.972;12.286;2024-03-02T07:02:58;99906.34;;;6.26;100.00
64827;BME280;51265;53.972;12.286;2024-03-02T07:05:24;99915.66;;;6.25;100.00
64827;BME280;51265;53.972;12.286;2024-03-02T07:07:50;99911.25;;;6.29;100.00
64827;BME280;51265;53.972;12.286;2024-03-02T07:10:16;99915.09;;;6.28;100.00
64827;BME280;51265;53.972;12.286;2024-03-02T07:12:43;99916.16;;;6.32;100.00
64827;BME280;51265;53.972;12.286;2024-03-02T07:15:10;99916.66;;;6.34;100.00
64827;BME280;51265;53.972;12.286;2024-03-02T07:17:55;99911.75;;;6.36;100.00
64827;BME280;51265;53.972;12.286;2024-03-02T07:20:21;99912.81;;;6.40;100.00
64827;BME280;51265;53.972;12.286;2024-03-02T07:22:48;99913.31;;;6.42;100.00
64827;BME280;51265;53.972;12.286;2024-03-02T07:25:14;99917.91;;;6.47;100.00
64827;BME280;51265;53.972;12.286;2024-03-02T07:27:40;99920.84;;;6.56;100.00
64827;BME280;51265;53.972;12.286;2024-03-02T07:30:07;99922.50;;;6.57;100.00
64827;BME280;51265;53.972;12.286;2024-03-02T07:32:33;99913.41;;;6.61;100.00
64827;BME280;51265;53.972;12.286;2024-03-02T07:34:59;99913.66;;;6.65;100.00
64827;BME280;51265;53.972;12.286;2024-03-02T07:37:27;99920.19;;;6.69;100.00
64827;BME280;51265;53.972;12.286;2024-03-02T07:39:53;99923.19;;;6.67;100.00
64827;BME280;51265;53.972;12.286;2024-03-02T07:42:20;99915.84;;;6.63;100.00
64827;BME280;51265;53.972;12.286;2024-03-02T07:44:46;99916.38;;;6.65;100.00
64827;BME280;51265;53.972;12.286;2024-03-02T07:47:12;99915.28;;;6.66;100.00
64827;BME280;51265;53.972;12.286;2024-03-02T07:49:38;99922.69;;;6.65;100.00
64827;BME280;51265;53.972;12.286;2024-03-02T07:52:04;99922.91;;;6.69;100.00
64827;BME280;51265;53.972;12.286;2024-03-02T07:54:31;99922.25;;;6.77;100.00
64827;BME280;51265;53.972;12.286;2024-03-02T07:56:57;99924.13;;;6.82;100.00
64827;BME280;51265;53.972;12.286;2024-03-02T07:59:24;99923.84;;;6.83;100.00
64827;BME280;51265;53.972;12.286;2024-03-02T08:01:50;99930.94;;;6.84;100.00
64827;BME280;51265;53.972;12.286;2024-03-02T08:04:17;99930.44;;;6.82;100.00
64827;BME280;51265;53.972;12.286;2024-03-02T08:06:45;99935.25;;;6.90;100.00
64827;BME280;51265;53.972;12.286;2024-03-02T08:09:11;99935.78;;;6.92;100.00
64827;BME280;51265;53.972;12.286;2024-03-02T08:11:37;99934.03;;;7.02;100.00
64827;BME280;51265;53.972;12.286;2024-03-02T08:14:03;99935.06;;;7.06;100.00
64827;BME280;51265;53.972;12.286;2024-03-02T08:16:29;99932.28;;;7.11;100.00
64827;BME280;51265;53.972;12.286;2024-03-02T08:18:56;99925.16;;;7.10;100.00
64827;BME280;51265;53.972;12.286;2024-03-02T08:21:24;99928.66;;;7.15;100.00
64827;BME280;51265;53.972;12.286;2024-03-02T08:23:51;99926.66;;;7.21;100.00
64827;BME280;51265;53.972;12.286;2024-03-02T08:26:17;99932.53;;;7.33;100.00
64827;BME280;51265;53.972;12.286;2024-03-02T08:28:43;99933.06;;;7.35;100.00
64827;BME280;51265;53.972;12.286;2024-03-02T08:31:11;99927.53;;;7.40;100.00
64827;BME280;51265;53.972;12.286;2024-03-02T08:33:37;99935.25;;;7.57;100.00
64827;BME280;51265;53.972;12.286;2024-03-02T08:36:04;99936.25;;;7.80;100.00
64827;BME280;51265;53.972;12.286;2024-03-02T08:38:31;99929.75;;;7.95;100.00
64827;BME280;51265;53.972;12.286;2024-03-02T08:40:57;99938.53;;;8.11;100.00
64827;BME280;51265;53.972;12.286;2024-03-02T08:43:23;99934.72;;;8.26;100.00
64827;BME280;51265;53.972;12.286;2024-03-02T08:45:50;99933.16;;;8.38;100.00
64827;BME280;51265;53.972;12.286;2024-03-02T08:48:17;99922.91;;;8.44;100.00
64827;BME280;51265;53.972;12.286;2024-03-02T08:50:43;99914.50;;;8.54;100.00
64827;BME280;51265;53.972;12.286;2024-03-02T08:53:09;99914.53;;;8.68;100.00
64827;BME280;51265;53.972;12.286;2024-03-02T08:55:35;99911.06;;;8.76;100.00
64827;BME280;51265;53.972;12.286;2024-03-02T08:58:02;99897.44;;;8.85;100.00
64827;BME280;51265;53.972;12.286;2024-03-02T09:00:28;99907.63;;;8.84;100.00
64827;BME280;51265;53.972;12.286;2024-03-02T09:02:54;99901.53;;;8.87;100.00
64827;BME280;51265;53.972;12.286;2024-03-02T09:05:20;99895.63;;;8.80;100.00
64827;BME280;51265;53.972;12.286;2024-03-02T09:07:47;99896.53;;;8.89;100.00
64827;BME280;51265;53.972;12.286;2024-03-02T09:10:13;99891.66;;;9.00;100.00
64827;BME280;51265;53.972;12.286;2024-03-02T09:12:39;99893.28;;;9.01;100.00
64827;BME280;51265;53.972;12.286;2024-03-02T09:15:05;99888.28;;;9.17;100.00
64827;BME280;51265;53.972;12.286;2024-03-02T09:17:32;99892.44;;;9.28;100.00
64827;BME280;51265;53.972;12.286;2024-03-02T09:19:58;99890.59;;;9.37;100.00
64827;BME280;51265;53.972;12.286;2024-03-02T09:22:27;99888.06;;;9.27;100.00
64827;BME280;51265;53.972;12.286;2024-03-02T09:25:03;99894.19;;;9.24;100.00
64827;BME280;51265;53.972;12.286;2024-03-02T09:27:30;99885.00;;;9.15;100.00
64827;BME280;51265;53.972;12.286;2024-03-02T09:29:56;99890.00;;;9.13;100.00
64827;BME280;51265;53.972;12.286;2024-03-02T09:32:22;99897.44;;;8.98;100.00
64827;BME280;51265;53.972;12.286;2024-03-02T09:34:49;99879.34;;;8.84;100.00
64827;BME280;51265;53.972;12.286;2024-03-02T09:37:15;99891.75;;;8.81;100.00
64827;BME280;51265;53.972;12.286;2024-03-02T09:39:43;99887.88;;;8.68;100.00
64827;BME280;51265;53.972;12.286;2024-03-02T09:42:10;99885.34;;;8.72;100.00
64827;BME280;51265;53.972;12.286;2024-03-02T09:44:37;99885.03;;;8.73;100.00
64827;BME280;51265;53.972;12.286;2024-03-02T09:47:03;99887.50;;;8.75;100.00
64827;BME280;51265;53.972;12.286;2024-03-02T09:49:29;99887.50;;;8.75;100.00
64827;BME280;51265;53.972;12.286;2024-03-02T09:51:56;99897.56;;;8.80;100.00
64827;BME280;51265;53.972;12.286;2024-03-02T09:54:22;99899.59;;;8.74;100.00
64827;BME280;51265;53.972;12.286;2024-03-02T09:56:50;99902.94;;;8.71;100.00
64827;BME280;51265;53.972;12.286;2024-03-02T09:59:17;99908.00;;;8.64;100.00
64827;BME280;51265;53.972;12.286;2024-03-02T10:01:58;99906.97;;;8.60;100.00
64827;BME280;51265;53.972;12.286;2024-03-02T10:04:29;99904.94;;;8.52;100.00
64827;BME280;51265;53.972;12.286;2024-03-02T10:07:16;99911.22;;;8.38;100.00
64827;BME280;51265;53.972;12.286;2024-03-02T10:09:48;99922.19;;;8.38;100.00
64827;BME280;51265;53.972;12.286;2024-03-02T10:12:16;99917.69;;;8.29;100.00
64827;BME280;51265;53.972;12.286;2024-03-02T10:14:43;99919.78;;;8.32;100.00
64827;BME280;51265;53.972;12.286;2024-03-02T10:17:11;99922.53;;;8.32;100.00
64827;BME280;51265;53.972;12.286;2024-03-02T10:19:38;99925.28;;;8.32;100.00
64827;BME280;51265;53.972;12.286;2024-03-02T10:22:06;99925.47;;;8.40;100.00
64827;BME280;51265;53.972;12.286;2024-03-02T10:24:41;99931.34;;;8.47;100.00
64827;BME280;51265;53.972;12.286;2024-03-02T10:29:41;99936.69;;;8.71;100.00
64827;BME280;51265;53.972;12.286;2024-03-02T10:32:09;99945.03;;;8.80;100.00
64827;BME280;51265;53.972;12.286;2024-03-02T10:34:39;99946.88;;;8.71;100.00
64827;BME280;51265;53.972;12.286;2024-03-02T10:37:06;99949.28;;;8.72;100.00
64827;BME280;51265;53.972;12.286;2024-03-02T10:39:36;99947.03;;;8.61;100.00
64827;BME280;51265;53.972;12.286;2024-03-02T10:42:05;99949.88;;;8.56;100.00
64827;BME280;51265;53.972;12.286;2024-03-02T10:44:32;99953.94;;;8.44;100.00
64827;BME280;51265;53.972;12.286;2024-03-02T10:47:04;99948.44;;;8.44;100.00
64827;BME280;51265;53.972;12.286;2024-03-02T10:49:31;99956.16;;;8.42;100.00
64827;BME280;51265;53.972;12.286;2024-03-02T10:51:58;99960.25;;;8.59;100.00
64827;BME280;51265;53.972;12.286;2024-03-02T10:54:25;99958.53;;;8.63;100.00
64827;BME280;51265;53.972;12.286;2024-03-02T10:57:03;99970.66;;;8.76;100.00
64827;BME280;51265;53.972;12.286;2024-03-02T10:59:37;99970.06;;;8.79;100.00
64827;BME280;51265;53.972;12.286;2024-03-02T11:02:11;99970.88;;;8.79;100.00
64827;BME280;51265;53.972;12.286;2024-03-02T11:04:39;99972.28;;;8.77;100.00
64827;BME280;51265;53.972;12.286;2024-03-02T11:07:08;99974.13;;;8.81;100.00
64827;BME280;51265;53.972;12.286;2024-03-02T11:09:49;99980.03;;;8.88;100.00
64827;BME280;51265;53.972;12.286;2024-03-02T11:12:23;99975.47;;;8.97;100.00
64827;BME280;51265;53.972;12.286;2024-03-02T11:14:51;99973.94;;;9.19;100.00
64827;BME280;51265;53.972;12.286;2024-03-02T11:17:20;99975.91;;;9.32;100.00
64827;BME280;51265;53.972;12.286;2024-03-02T11:19:47;99977.00;;;9.45;100.00
64827;BME280;51265;53.972;12.286;2024-03-02T11:22:14;99972.91;;;9.70;100.00
64827;BME280;51265;53.972;12.286;2024-03-02T11:24:48;99972.91;;;9.70;100.00
64827;BME280;51265;53.972;12.286;2024-03-02T11:33:02;99946.69;;;10.09;100.00
64827;BME280;51265;53.972;12.286;2024-03-02T11:35:40;99955.72;;;10.45;100.00
64827;BME280;51265;53.972;12.286;2024-03-02T11:38:09;99957.69;;;10.76;100.00
64827;BME280;51265;53.972;12.286;2024-03-02T11:40:35;99953.56;;;10.96;100.00
64827;BME280;51265;53.972;12.286;2024-03-02T11:43:02;99935.78;;;11.11;100.00
64827;BME280;51265;53.972;12.286;2024-03-02T11:45:28;99943.81;;;11.38;100.00
64827;BME280;51265;53.972;12.286;2024-03-02T11:47:56;99927.78;;;11.49;100.00
64827;BME280;51265;53.972;12.286;2024-03-02T11:50:29;99921.81;;;11.73;100.00
64827;BME280;51265;53.972;12.286;2024-03-02T11:52:58;99911.09;;;11.80;100.00
64827;BME280;51265;53.972;12.286;2024-03-02T11:55:28;99912.13;;;11.84;100.00
64827;BME280;51265;53.972;12.286;2024-03-02T11:57:55;99912.09;;;12.02;100.00
64827;BME280;51265;53.972;12.286;2024-03-02T12:00:21;99905.41;;;12.20;100.00
64827;BME280;51265;53.972;12.286;2024-03-02T12:03:00;99895.19;;;12.12;100.00
64827;BME280;51265;53.972;12.286;2024-03-02T12:05:27;99900.72;;;12.29;100.00
64827;BME280;51265;53.972;12.286;2024-03-02T12:08:05;99892.28;;;12.26;100.00
64827;BME280;51265;53.972;12.286;2024-03-02T12:10:33;99905.78;;;12.74;100.00
64827;BME280;51265;53.972;12.286;2024-03-02T12:13:01;99885.06;;;12.51;100.00
64827;BME280;51265;53.972;12.286;2024-03-02T12:15:29;99877.25;;;12.53;100.00
64827;BME280;51265;53.972;12.286;2024-03-02T12:17:57;99874.81;;;12.51;100.00
64827;BME280;51265;53.972;12.286;2024-03-02T12:20:24;99880.09;;;12.74;100.00
64827;BME280;51265;53.972;12.286;2024-03-02T12:22:54;99888.38;;;13.12;100.00
64827;BME280;51265;53.972;12.286;2024-03-02T12:25:22;99871.78;;;13.12;100.00
64827;BME280;51265;53.972;12.286;2024-03-02T12:27:50;99863.13;;;13.22;100.00
64827;BME280;51265;53.972;12.286;2024-03-02T12:30:17;99860.53;;;13.47;100.00
64827;BME280;51265;53.972;12.286;2024-03-02T12:32:44;99839.75;;;13.40;100.00
64827;BME280;51265;53.972;12.286;2024-03-02T12:35:11;99849.19;;;13.60;100.00
64827;BME280;51265;53.972;12.286;2024-03-02T12:37:48;99836.91;;;13.70;100.00
64827;BME280;51265;53.972;12.286;2024-03-02T12:40:17;99819.84;;;13.68;100.00
64827;BME280;51265;53.972;12.286;2024-03-02T12:42:45;99810.53;;;13.73;100.00
64827;BME280;51265;53.972;12.286;2024-03-02T12:45:12;99798.09;;;13.58;100.00
64827;BME280;51265;53.972;12.286;2024-03-02T12:47:40;99797.44;;;13.61;100.00
64827;BME280;51265;53.972;12.286;2024-03-02T12:50:07;99790.47;;;13.76;100.00
64827;BME280;51265;53.972;12.286;2024-03-02T12:52:35;99794.78;;;13.85;100.00
64827;BME280;51265;53.972;12.286;2024-03-02T12:55:04;99779.31;;;13.84;100.00
64827;BME280;51265;53.972;12.286;2024-03-02T12:57:32;99769.56;;;14.11;100.00
64827;BME280;51265;53.972;12.286;2024-03-02T12:59:59;99765.78;;;14.16;100.00
64827;BME280;51265;53.972;12.286;2024-03-02T13:02:30;99738.03;;;13.91;100.00
64827;BME280;51265;53.972;12.286;2024-03-02T13:04:59;99735.34;;;13.83;100.00
64827;BME280;51265;53.972;12.286;2024-03-02T13:07:26;99728.75;;;13.75;100.00
64827;BME280;51265;53.972;12.286;2024-03-02T13:09:56;99725.28;;;13.66;100.00
64827;BME280;51265;53.972;12.286;2024-03-02T13:12:24;99736.91;;;13.59;100.00
64827;BME280;51265;53.972;12.286;2024-03-02T13:14:53;99738.84;;;13.47;100.00